MET5208 - Greenville - Spartanburg to Boston

Embraer ERJ-170LR
N924AG
2 hrs 00 mins
691 nm
Scheduled - Daily

Bid/PiRep Status

Bid was submitted on January 2nd, 2017 1:14 UTC.
PiRep # 74570: Approved by Sean Doyle on January 2nd, 2017 20:08 UTC

Departure

Departing from
Greenville - Spartanburg (GSP)
Departure gate
Ramp
Scheduled Departure
GMT 2200
Local 1800
METAR KGSP 232017Z 22010KT 10SM FEW009 BKN055 OVC070 19/19 A2977 RMK AO2 LTG DSNT E T01940194
TAF KGSP 231730Z 2318/2418 16015G25KT 6SM -SHRA BR SCT007 OVC015 TEMPO 2318/2321 VRB15G25KT 2SM +TSRA BR OVC007CB FM232100 20011KT P6SM VCSH BKN025 FM240000 23009KT P6SM BKN250 FM241100 22004KT P6SM BKN250 FM241500 23011KT P6SM SCT250

Arrival

Arriving at
Boston (BOS)
Arrival gate
Scheduled Arrival
GMT 0000
Local 2000
METAR KBOS 231954Z 07008KT 1 1/4SM BR SCT003 BKN037 BKN250 15/14 A3024 RMK AO2 SLP240 SFC VIS 6 VIS 3/4 E-S T01500139
TAF KBOS 231920Z 2319/2424 07007KT 1 1/2SM BR BKN002 BKN250 FM232100 08007KT 1SM BR BKN003 FM240300 11008KT 1/2SM FG BKN003 FM241100 16011G19KT 1SM BR OVC008 FM241300 16014G22KT 4SM BR VCSH OVC010 FM241600 16015G24KT 6SM BR VCSH OVC025 FM241900 17016G26KT P6S

Route Map

Planning Resources

SPA V605 GENOD GSO J14 RIC
SPA RDU FAK OTT6
SPA J37 GVE J42 OTT RAVNN5
SPA JAC EVING LOOEY JAXSN CREWE FAK OGATE BRV OTT DEALE RAVNN
CEVVY SPA J37 GVE J42 OTT RAVNN5 COLUM
Route:
OFP Layout:
Units:
Detailed Navlog:
ETOPS Planning:
Plan Stepclimbs:
Runway Analysis:
Include NOTAMS:
FIR NOTAMS:
Flight Maps:

Return Flights

MET5207
Embraer ERJ-170LR
1900 GMT
MET5209
Embraer ERJ-170LR
0300 GMT

Popularity

Hub Current Bids PiReps this month Total PiReps
KLAX 0 0 0
KBOS 0 0 2
KDFW 0 0 0